sensor_id;sensor_type;location;lat;lon;timestamp;temperature;humidity
6879;DHT22;3478;51.462;7.338;2023-04-15T00:00:05;8.30;99.90
6879;DHT22;3478;51.462;7.338;2023-04-15T00:05:09;8.30;99.90
6879;DHT22;3478;51.462;7.338;2023-04-15T00:10:11;8.30;99.90
6879;DHT22;3478;51.462;7.338;2023-04-15T00:15:13;8.30;99.90
6879;DHT22;3478;51.462;7.338;2023-04-15T00:20:17;8.30;99.90
6879;DHT22;3478;51.462;7.338;2023-04-15T00:25:19;8.20;99.90
6879;DHT22;3478;51.462;7.338;2023-04-15T00:30:21;8.20;99.90
6879;DHT22;3478;51.462;7.338;2023-04-15T00:35:25;8.10;99.90
6879;DHT22;3478;51.462;7.338;2023-04-15T00:40:33;8.00;99.90
6879;DHT22;3478;51.462;7.338;2023-04-15T00:45:35;7.90;99.90
6879;DHT22;3478;51.462;7.338;2023-04-15T00:50:38;7.80;99.90
6879;DHT22;3478;51.462;7.338;2023-04-15T00:55:40;7.70;99.90
6879;DHT22;3478;51.462;7.338;2023-04-15T01:00:42;7.60;99.90
6879;DHT22;3478;51.462;7.338;2023-04-15T01:05:45;7.60;99.90
6879;DHT22;3478;51.462;7.338;2023-04-15T01:10:47;7.50;99.90
6879;DHT22;3478;51.462;7.338;2023-04-15T01:15:49;7.40;99.90
6879;DHT22;3478;51.462;7.338;2023-04-15T01:20:53;7.40;99.90
6879;DHT22;3478;51.462;7.338;2023-04-15T01:25:57;7.40;99.90
6879;DHT22;3478;51.462;7.338;2023-04-15T01:31:07;7.50;99.90
6879;DHT22;3478;51.462;7.338;2023-04-15T01:36:09;7.40;99.90
6879;DHT22;3478;51.462;7.338;2023-04-15T01:41:12;7.30;99.90
6879;DHT22;3478;51.462;7.338;2023-04-15T01:46:14;7.30;99.90
6879;DHT22;3478;51.462;7.338;2023-04-15T01:51:16;7.30;99.90
6879;DHT22;3478;51.462;7.338;2023-04-15T01:56:20;7.30;99.90
6879;DHT22;3478;51.462;7.338;2023-04-15T02:01:21;7.30;99.90
6879;DHT22;3478;51.462;7.338;2023-04-15T02:06:23;7.30;99.90
6879;DHT22;3478;51.462;7.338;2023-04-15T02:11:26;7.30;99.90
6879;DHT22;3478;51.462;7.338;2023-04-15T02:16:28;7.30;99.90
6879;DHT22;3478;51.462;7.338;2023-04-15T02:21:30;7.30;99.90
6879;DHT22;3478;51.462;7.338;2023-04-15T02:26:33;7.20;99.90
6879;DHT22;3478;51.462;7.338;2023-04-15T02:31:35;7.10;99.90
6879;DHT22;3478;51.462;7.338;2023-04-15T02:36:39;7.00;99.90
6879;DHT22;3478;51.462;7.338;2023-04-15T02:41:43;7.00;99.90
6879;DHT22;3478;51.462;7.338;2023-04-15T02:46:47;6.90;99.90
6879;DHT22;3478;51.462;7.338;2023-04-15T02:51:51;6.80;99.90
6879;DHT22;3478;51.462;7.338;2023-04-15T02:56:55;6.70;99.90
6879;DHT22;3478;51.462;7.338;2023-04-15T03:01:56;6.60;99.90
6879;DHT22;3478;51.462;7.338;2023-04-15T03:07:00;6.70;99.90
6879;DHT22;3478;51.462;7.338;2023-04-15T03:12:03;6.60;99.90
6879;DHT22;3478;51.462;7.338;2023-04-15T03:17:05;6.60;99.90
6879;DHT22;3478;51.462;7.338;2023-04-15T03:22:07;6.50;99.90
6879;DHT22;3478;51.462;7.338;2023-04-15T03:27:10;6.50;99.90
6879;DHT22;3478;51.462;7.338;2023-04-15T03:32:12;6.40;99.90
6879;DHT22;3478;51.462;7.338;2023-04-15T03:37:14;6.40;99.90
6879;DHT22;3478;51.462;7.338;2023-04-15T03:42:18;6.40;99.90
6879;DHT22;3478;51.462;7.338;2023-04-15T03:47:19;6.40;99.90
6879;DHT22;3478;51.462;7.338;2023-04-15T03:52:21;6.30;99.90
6879;DHT22;3478;51.462;7.338;2023-04-15T03:57:25;6.40;99.90
6879;DHT22;3478;51.462;7.338;2023-04-15T04:02:26;6.30;99.90
6879;DHT22;3478;51.462;7.338;2023-04-15T04:07:28;6.30;99.90
6879;DHT22;3478;51.462;7.338;2023-04-15T04:12:32;6.30;99.90
6879;DHT22;3478;51.462;7.338;2023-04-15T04:17:33;6.40;99.90
6879;DHT22;3478;51.462;7.338;2023-04-15T04:22:37;6.30;99.90
6879;DHT22;3478;51.462;7.338;2023-04-15T04:27:40;6.30;99.90
6879;DHT22;3478;51.462;7.338;2023-04-15T04:32:42;6.20;99.90
6879;DHT22;3478;51.462;7.338;2023-04-15T04:37:44;6.20;99.90
6879;DHT22;3478;51.462;7.338;2023-04-15T04:42:47;6.20;99.90
6879;DHT22;3478;51.462;7.338;2023-04-15T04:47:49;6.20;99.90
6879;DHT22;3478;51.462;7.338;2023-04-15T04:52:50;6.10;99.90
6879;DHT22;3478;51.462;7.338;2023-04-15T04:57:54;6.00;99.90
6879;DHT22;3478;51.462;7.338;2023-04-15T05:02:56;6.00;99.90
6879;DHT22;3478;51.462;7.338;2023-04-15T05:07:58;6.00;99.90
6879;DHT22;3478;51.462;7.338;2023-04-15T05:13:01;6.00;99.90
6879;DHT22;3478;51.462;7.338;2023-04-15T05:18:03;6.00;99.90
6879;DHT22;3478;51.462;7.338;2023-04-15T05:23:05;5.90;99.90
6879;DHT22;3478;51.462;7.338;2023-04-15T05:28:08;5.90;99.90
6879;DHT22;3478;51.462;7.338;2023-04-15T05:33:10;6.00;99.90
6879;DHT22;3478;51.462;7.338;2023-04-15T05:38:12;6.10;99.90
6879;DHT22;3478;51.462;7.338;2023-04-15T05:43:15;6.20;99.90
6879;DHT22;3478;51.462;7.338;2023-04-15T05:48:17;6.30;99.90
6879;DHT22;3478;51.462;7.338;2023-04-15T05:53:19;6.40;99.90
6879;DHT22;3478;51.462;7.338;2023-04-15T05:58:22;6.40;99.90
6879;DHT22;3478;51.462;7.338;2023-04-15T06:03:24;6.60;99.90
6879;DHT22;3478;51.462;7.338;2023-04-15T06:08:26;6.60;99.90
6879;DHT22;3478;51.462;7.338;2023-04-15T06:13:29;6.70;99.90
6879;DHT22;3478;51.462;7.338;2023-04-15T06:18:31;6.80;99.90
6879;DHT22;3478;51.462;7.338;2023-04-15T06:23:33;7.10;99.90
6879;DHT22;3478;51.462;7.338;2023-04-15T06:28:37;7.30;99.90
6879;DHT22;3478;51.462;7.338;2023-04-15T06:33:38;7.40;99.90
6879;DHT22;3478;51.462;7.338;2023-04-15T06:38:40;7.40;99.90
6879;DHT22;3478;51.462;7.338;2023-04-15T06:43:43;7.40;99.90
6879;DHT22;3478;51.462;7.338;2023-04-15T06:48:45;7.40;99.90
6879;DHT22;3478;51.462;7.338;2023-04-15T06:53:47;7.40;99.90
6879;DHT22;3478;51.462;7.338;2023-04-15T06:58:51;7.60;99.90
6879;DHT22;3478;51.462;7.338;2023-04-15T07:03:53;7.70;99.90
6879;DHT22;3478;51.462;7.338;2023-04-15T07:08:54;7.80;99.90
6879;DHT22;3478;51.462;7.338;2023-04-15T07:13:58;8.00;99.90
6879;DHT22;3478;51.462;7.338;2023-04-15T07:19:00;8.20;99.90
6879;DHT22;3478;51.462;7.338;2023-04-15T07:24:01;8.50;99.90
6879;DHT22;3478;51.462;7.338;2023-04-15T07:29:05;8.70;99.90
6879;DHT22;3478;51.462;7.338;2023-04-15T07:34:06;9.00;99.90
6879;DHT22;3478;51.462;7.338;2023-04-15T07:39:08;9.20;99.90
6879;DHT22;3478;51.462;7.338;2023-04-15T07:44:11;9.50;99.90
6879;DHT22;3478;51.462;7.338;2023-04-15T07:49:13;9.70;99.90
6879;DHT22;3478;51.462;7.338;2023-04-15T07:54:15;9.80;99.90
6879;DHT22;3478;51.462;7.338;2023-04-15T07:59:18;9.80;99.90
6879;DHT22;3478;51.462;7.338;2023-04-15T08:04:21;10.10;99.90
6879;DHT22;3478;51.462;7.338;2023-04-15T08:09:22;10.20;99.90
6879;DHT22;3478;51.462;7.338;2023-04-15T08:14:26;10.30;99.90
6879;DHT22;3478;51.462;7.338;2023-04-15T08:19:27;10.50;99.90
6879;DHT22;3478;51.462;7.338;2023-04-15T08:24:30;10.90;99.90
6879;DHT22;3478;51.462;7.338;2023-04-15T08:29:34;11.00;99.90
6879;DHT22;3478;51.462;7.338;2023-04-15T08:34:35;11.10;99.90
6879;DHT22;3478;51.462;7.338;2023-04-15T08:39:37;11.20;99.90
6879;DHT22;3478;51.462;7.338;2023-04-15T08:44:41;11.30;99.90
6879;DHT22;3478;51.462;7.338;2023-04-15T08:49:44;11.50;99.90
6879;DHT22;3478;51.462;7.338;2023-04-15T08:54:46;11.60;99.90
6879;DHT22;3478;51.462;7.338;2023-04-15T08:59:50;11.40;99.90
6879;DHT22;3478;51.462;7.338;2023-04-15T09:04:53;11.40;99.90
6879;DHT22;3478;51.462;7.338;2023-04-15T09:09:55;11.40;99.90
6879;DHT22;3478;51.462;7.338;2023-04-15T09:14:58;11.30;99.90
6879;DHT22;3478;51.462;7.338;2023-04-15T09:20:07;11.40;99.90
6879;DHT22;3478;51.462;7.338;2023-04-15T09:25:26;11.40;99.90
6879;DHT22;3478;51.462;7.338;2023-04-15T09:30:30;11.30;99.90
6879;DHT22;3478;51.462;7.338;2023-04-15T09:35:32;11.10;99.90
6879;DHT22;3478;51.462;7.338;2023-04-15T09:40:35;11.20;99.90
6879;DHT22;3478;51.462;7.338;2023-04-15T09:45:38;11.30;99.90
6879;DHT22;3478;51.462;7.338;2023-04-15T09:50:48;11.30;99.90
6879;DHT22;3478;51.462;7.338;2023-04-15T09:55:51;11.50;99.90
6879;DHT22;3478;51.462;7.338;2023-04-15T10:00:56;11.60;99.90
6879;DHT22;3478;51.462;7.338;2023-04-15T10:05:59;11.70;99.90
6879;DHT22;3478;51.462;7.338;2023-04-15T10:11:02;11.80;99.90
6879;DHT22;3478;51.462;7.338;2023-04-15T10:16:09;11.80;99.90
6879;DHT22;3478;51.462;7.338;2023-04-15T10:21:11;11.40;99.90
6879;DHT22;3478;51.462;7.338;2023-04-15T10:26:17;11.30;99.90
6879;DHT22;3478;51.462;7.338;2023-04-15T10:31:22;11.30;99.90
6879;DHT22;3478;51.462;7.338;2023-04-15T10:36:24;11.10;99.90
6879;DHT22;3478;51.462;7.338;2023-04-15T10:41:27;11.00;99.90
6879;DHT22;3478;51.462;7.338;2023-04-15T10:46:36;11.00;99.90
6879;DHT22;3478;51.462;7.338;2023-04-15T10:51:39;10.80;99.90
6879;DHT22;3478;51.462;7.338;2023-04-15T10:56:42;10.70;99.90
6879;DHT22;3478;51.462;7.338;2023-04-15T11:01:53;10.60;99.90
6879;DHT22;3478;51.462;7.338;2023-04-15T11:07:04;10.50;99.90
6879;DHT22;3478;51.462;7.338;2023-04-15T11:12:09;10.50;99.90
6879;DHT22;3478;51.462;7.338;2023-04-15T11:17:13;10.50;99.90
6879;DHT22;3478;51.462;7.338;2023-04-15T11:22:15;10.50;99.90
6879;DHT22;3478;51.462;7.338;2023-04-15T11:27:20;10.30;99.90
6879;DHT22;3478;51.462;7.338;2023-04-15T11:32:24;10.50;99.90
6879;DHT22;3478;51.462;7.338;2023-04-15T11:37:29;10.50;99.90
6879;DHT22;3478;51.462;7.338;2023-04-15T11:42:33;10.30;99.90
6879;DHT22;3478;51.462;7.338;2023-04-15T11:47:36;10.40;99.90
6879;DHT22;3478;51.462;7.338;2023-04-15T11:52:38;10.30;99.90
6879;DHT22;3478;51.462;7.338;2023-04-15T11:57:40;10.40;99.90
6879;DHT22;3478;51.462;7.338;2023-04-15T12:02:43;10.50;99.90
6879;DHT22;3478;51.462;7.338;2023-04-15T12:07:58;10.50;99.90
6879;DHT22;3478;51.462;7.338;2023-04-15T12:13:00;10.50;99.90
6879;DHT22;3478;51.462;7.338;2023-04-15T12:18:03;10.60;99.90
6879;DHT22;3478;51.462;7.338;2023-04-15T12:23:05;10.60;99.90
6879;DHT22;3478;51.462;7.338;2023-04-15T12:28:10;10.70;99.90
6879;DHT22;3478;51.462;7.338;2023-04-15T12:33:13;10.70;99.90
6879;DHT22;3478;51.462;7.338;2023-04-15T12:38:15;10.80;99.90
6879;DHT22;3478;51.462;7.338;2023-04-15T12:49:15;10.30;99.90
6879;DHT22;3478;51.462;7.338;2023-04-15T12:54:20;10.30;99.90
6879;DHT22;3478;51.462;7.338;2023-04-15T12:59:22;10.20;99.90
6879;DHT22;3478;51.462;7.338;2023-04-15T13:04:25;10.40;99.90
6879;DHT22;3478;51.462;7.338;2023-04-15T13:09:30;10.30;99.90
6879;DHT22;3478;51.462;7.338;2023-04-15T13:14:31;10.30;99.90
6879;DHT22;3478;51.462;7.338;2023-04-15T13:19:35;10.20;99.90
6879;DHT22;3478;51.462;7.338;2023-04-15T13:24:37;10.40;99.90
6879;DHT22;3478;51.462;7.338;2023-04-15T13:29:40;10.40;99.90
6879;DHT22;3478;51.462;7.338;2023-04-15T13:34:43;10.50;99.90
6879;DHT22;3478;51.462;7.338;2023-04-15T13:39:45;10.50;99.90
6879;DHT22;3478;51.462;7.338;2023-04-15T13:44:48;10.60;99.90
6879;DHT22;3478;51.462;7.338;2023-04-15T13:49:51;10.50;99.90
6879;DHT22;3478;51.462;7.338;2023-04-15T13:54:55;10.40;99.90
6879;DHT22;3478;51.462;7.338;2023-04-15T13:59:57;10.30;99.90
6879;DHT22;3478;51.462;7.338;2023-04-15T14:05:00;10.40;99.90
6879;DHT22;3478;51.462;7.338;2023-04-15T14:10:03;10.40;99.90
6879;DHT22;3478;51.462;7.338;2023-04-15T14:15:05;10.40;99.90
6879;DHT22;3478;51.462;7.338;2023-04-15T14:20:09;10.30;99.90
6879;DHT22;3478;51.462;7.338;2023-04-15T14:25:11;10.20;99.90
6879;DHT22;3478;51.462;7.338;2023-04-15T14:30:13;10.20;99.90
6879;DHT22;3478;51.462;7.338;2023-04-15T14:35:16;10.20;99.90
6879;DHT22;3478;51.462;7.338;2023-04-15T14:40:19;10.20;99.90
6879;DHT22;3478;51.462;7.338;2023-04-15T14:45:20;10.20;99.90
6879;DHT22;3478;51.462;7.338;2023-04-15T14:50:24;10.10;99.90
6879;DHT22;3478;51.462;7.338;2023-04-15T14:55:25;10.10;99.90
6879;DHT22;3478;51.462;7.338;2023-04-15T15:00:27;10.10;99.90
6879;DHT22;3478;51.462;7.338;2023-04-15T15:05:30;10.00;99.90
6879;DHT22;3478;51.462;7.338;2023-04-15T15:10:33;9.90;99.90
6879;DHT22;3478;51.462;7.338;2023-04-15T15:15:36;9.80;99.90
6879;DHT22;3478;51.462;7.338;2023-04-15T15:20:39;9.70;99.90
6879;DHT22;3478;51.462;7.338;2023-04-15T15:25:42;9.50;99.90
6879;DHT22;3478;51.462;7.338;2023-04-15T15:30:43;9.40;99.90
6879;DHT22;3478;51.462;7.338;2023-04-15T15:35:47;9.30;99.90
6879;DHT22;3478;51.462;7.338;2023-04-15T15:40:48;9.20;99.90
6879;DHT22;3478;51.462;7.338;2023-04-15T15:45:51;9.20;99.90
6879;DHT22;3478;51.462;7.338;2023-04-15T15:50:56;9.20;99.90
6879;DHT22;3478;51.462;7.338;2023-04-15T15:55:58;9.10;99.90
6879;DHT22;3478;51.462;7.338;2023-04-15T16:00:59;9.10;99.90
6879;DHT22;3478;51.462;7.338;2023-04-15T16:06:03;9.10;99.90
6879;DHT22;3478;51.462;7.338;2023-04-15T16:11:05;9.10;99.90
6879;DHT22;3478;51.462;7.338;2023-04-15T16:16:07;9.10;99.90
6879;DHT22;3478;51.462;7.338;2023-04-15T16:21:10;9.00;99.90
6879;DHT22;3478;51.462;7.338;2023-04-15T16:26:12;9.10;99.90
6879;DHT22;3478;51.462;7.338;2023-04-15T16:31:14;9.00;99.90
6879;DHT22;3478;51.462;7.338;2023-04-15T16:36:17;9.00;99.90
6879;DHT22;3478;51.462;7.338;2023-04-15T16:41:19;9.00;99.90
6879;DHT22;3478;51.462;7.338;2023-04-15T16:46:21;8.90;99.90
6879;DHT22;3478;51.462;7.338;2023-04-15T16:51:24;8.90;99.90
6879;DHT22;3478;51.462;7.338;2023-04-15T16:56:26;8.80;99.90
6879;DHT22;3478;51.462;7.338;2023-04-15T17:01:28;8.80;99.90
6879;DHT22;3478;51.462;7.338;2023-04-15T17:06:32;8.80;99.90
6879;DHT22;3478;51.462;7.338;2023-04-15T17:11:33;8.80;99.90
6879;DHT22;3478;51.462;7.338;2023-04-15T17:16:37;8.70;99.90
6879;DHT22;3478;51.462;7.338;2023-04-15T17:21:41;8.60;99.90
6879;DHT22;3478;51.462;7.338;2023-04-15T17:26:42;8.70;99.90
6879;DHT22;3478;51.462;7.338;2023-04-15T17:31:44;8.80;99.90
6879;DHT22;3478;51.462;7.338;2023-04-15T17:36:48;8.80;99.90
6879;DHT22;3478;51.462;7.338;2023-04-15T17:41:50;8.80;99.90
6879;DHT22;3478;51.462;7.338;2023-04-15T17:46:52;8.80;99.90
6879;DHT22;3478;51.462;7.338;2023-04-15T17:51:55;8.80;99.90
6879;DHT22;3478;51.462;7.338;2023-04-15T17:56:57;8.70;99.90
6879;DHT22;3478;51.462;7.338;2023-04-15T18:01:59;8.70;99.90
6879;DHT22;3478;51.462;7.338;2023-04-15T18:07:03;8.70;99.90
6879;DHT22;3478;51.462;7.338;2023-04-15T18:12:05;8.80;99.90
6879;DHT22;3478;51.462;7.338;2023-04-15T18:17:08;8.70;99.90
6879;DHT22;3478;51.462;7.338;2023-04-15T18:22:11;8.70;99.90
6879;DHT22;3478;51.462;7.338;2023-04-15T18:27:13;8.70;99.90
6879;DHT22;3478;51.462;7.338;2023-04-15T18:32:15;8.60;99.90
6879;DHT22;3478;51.462;7.338;2023-04-15T18:37:18;8.60;99.90
6879;DHT22;3478;51.462;7.338;2023-04-15T18:42:20;8.50;99.90
6879;DHT22;3478;51.462;7.338;2023-04-15T18:47:25;8.40;99.90
6879;DHT22;3478;51.462;7.338;2023-04-15T18:52:28;8.60;99.90
6879;DHT22;3478;51.462;7.338;2023-04-15T18:57:32;8.70;99.90
6879;DHT22;3478;51.462;7.338;2023-04-15T19:02:34;8.60;99.90
6879;DHT22;3478;51.462;7.338;2023-04-15T19:07:37;8.60;99.90
6879;DHT22;3478;51.462;7.338;2023-04-15T19:12:39;8.60;99.90
6879;DHT22;3478;51.462;7.338;2023-04-15T19:17:41;8.60;99.90
6879;DHT22;3478;51.462;7.338;2023-04-15T19:22:44;8.60;99.90
6879;DHT22;3478;51.462;7.338;2023-04-15T19:27:46;8.60;99.90
6879;DHT22;3478;51.462;7.338;2023-04-15T19:32:48;8.50;99.90
6879;DHT22;3478;51.462;7.338;2023-04-15T19:37:51;8.40;99.90
6879;DHT22;3478;51.462;7.338;2023-04-15T19:42:53;8.40;99.90
6879;DHT22;3478;51.462;7.338;2023-04-15T19:47:55;8.50;99.90
6879;DHT22;3478;51.462;7.338;2023-04-15T19:52:58;8.40;99.90
6879;DHT22;3478;51.462;7.338;2023-04-15T19:58:00;8.40;99.90
6879;DHT22;3478;51.462;7.338;2023-04-15T20:03:02;8.40;99.90
6879;DHT22;3478;51.462;7.338;2023-04-15T20:08:05;8.30;99.90
6879;DHT22;3478;51.462;7.338;2023-04-15T20:13:07;8.30;99.90
6879;DHT22;3478;51.462;7.338;2023-04-15T20:18:09;8.30;99.90
6879;DHT22;3478;51.462;7.338;2023-04-15T20:23:12;8.40;99.90
6879;DHT22;3478;51.462;7.338;2023-04-15T20:28:14;8.40;99.90
6879;DHT22;3478;51.462;7.338;2023-04-15T20:33:17;8.40;99.90
6879;DHT22;3478;51.462;7.338;2023-04-15T20:38:20;8.40;99.90
6879;DHT22;3478;51.462;7.338;2023-04-15T20:43:22;8.40;99.90
6879;DHT22;3478;51.462;7.338;2023-04-15T20:48:25;8.30;99.90
6879;DHT22;3478;51.462;7.338;2023-04-15T20:53:28;8.30;99.90
6879;DHT22;3478;51.462;7.338;2023-04-15T20:58:30;8.40;99.90
6879;DHT22;3478;51.462;7.338;2023-04-15T21:03:32;8.30;99.90
6879;DHT22;3478;51.462;7.338;2023-04-15T21:08:35;8.40;99.90
6879;DHT22;3478;51.462;7.338;2023-04-15T21:13:37;8.30;99.90
6879;DHT22;3478;51.462;7.338;2023-04-15T21:18:39;8.30;99.90
6879;DHT22;3478;51.462;7.338;2023-04-15T21:23:42;8.30;99.90
6879;DHT22;3478;51.462;7.338;2023-04-15T21:28:44;8.40;99.90
6879;DHT22;3478;51.462;7.338;2023-04-15T21:33:46;8.30;99.90
6879;DHT22;3478;51.462;7.338;2023-04-15T21:38:49;8.40;99.90
6879;DHT22;3478;51.462;7.338;2023-04-15T21:43:51;8.40;99.90
6879;DHT22;3478;51.462;7.338;2023-04-15T21:48:53;8.40;99.90
6879;DHT22;3478;51.462;7.338;2023-04-15T21:53:56;8.40;99.90
6879;DHT22;3478;51.462;7.338;2023-04-15T21:58:58;8.40;99.90
6879;DHT22;3478;51.462;7.338;2023-04-15T22:04:00;8.30;99.90
6879;DHT22;3478;51.462;7.338;2023-04-15T22:09:03;8.30;99.90
6879;DHT22;3478;51.462;7.338;2023-04-15T22:14:05;8.30;99.90
6879;DHT22;3478;51.462;7.338;2023-04-15T22:19:07;8.40;99.90
6879;DHT22;3478;51.462;7.338;2023-04-15T22:24:10;8.30;99.90
6879;DHT22;3478;51.462;7.338;2023-04-15T22:29:12;8.50;99.90
6879;DHT22;3478;51.462;7.338;2023-04-15T22:34:14;8.50;99.90
6879;DHT22;3478;51.462;7.338;2023-04-15T22:39:22;8.50;99.90
6879;DHT22;3478;51.462;7.338;2023-04-15T22:44:23;8.60;99.90
6879;DHT22;3478;51.462;7.338;2023-04-15T22:49:25;8.50;99.90
6879;DHT22;3478;51.462;7.338;2023-04-15T22:54:28;8.50;99.90
6879;DHT22;3478;51.462;7.338;2023-04-15T22:59:33;8.40;99.90
6879;DHT22;3478;51.462;7.338;2023-04-15T23:04:35;8.30;99.90
6879;DHT22;3478;51.462;7.338;2023-04-15T23:09:38;8.40;99.90
6879;DHT22;3478;51.462;7.338;2023-04-15T23:14:40;8.40;99.90
6879;DHT22;3478;51.462;7.338;2023-04-15T23:19:42;8.30;99.90
6879;DHT22;3478;51.462;7.338;2023-04-15T23:24:45;8.30;99.90
6879;DHT22;3478;51.462;7.338;2023-04-15T23:29:50;8.40;99.90
6879;DHT22;3478;51.462;7.338;2023-04-15T23:34:52;8.40;99.90
6879;DHT22;3478;51.462;7.338;2023-04-15T23:39:55;8.30;99.90
6879;DHT22;3478;51.462;7.338;2023-04-15T23:44:56;8.30;99.90
6879;DHT22;3478;51.462;7.338;2023-04-15T23:49:58;8.30;99.90
6879;DHT22;3478;51.462;7.338;2023-04-15T23:55:01;8.30;99.90
